Time;durP1;ratioP1;P1;durP2;ratioP2;P2;SDS_P1;SDS_P2;PMS_P1;PMS_P2;Temp;Humidity;BMP_temperature;BMP_pressure;BME280_temperature;BME280_humidity;BME280_pressure;Samples;Min_cycle;Max_cycle;Signal;HPM_P1;HPM_P2
2023/08/15 00:00:16;;;;;;;0.50;0.50;;;;;;;24.51;65.96;100672.03;6374745;23;20054;-83
2023/08/15 00:03:13;;;;;;;0.43;0.43;;;;;;;24.46;66.14;100674.28;6377718;23;20558;-83
2023/08/15 00:09:01;;;;;;;0.95;0.95;;;;;;;24.40;66.58;100669.44;6410155;23;20008;-84
2023/08/15 00:11:31;;;;;;;0.50;0.50;;;;;;;24.43;66.50;100663.81;6380575;23;20004;-84
2023/08/15 00:14:02;;;;;;;0.30;0.30;;;;;;;24.41;66.20;100660.44;6405273;23;20052;-83
2023/08/15 00:16:34;;;;;;;0.95;0.50;;;;;;;24.43;65.80;100658.44;6406714;23;20012;-83
2023/08/15 00:19:04;;;;;;;0.77;0.40;;;;;;;24.45;65.67;100656.47;6369503;23;20009;-84
2023/08/15 00:21:34;;;;;;;0.57;0.50;;;;;;;24.38;65.83;100665.22;6369338;23;20011;-83
2023/08/15 00:24:05;;;;;;;0.68;0.68;;;;;;;24.41;65.98;100660.44;6406984;23;20001;-83
2023/08/15 00:26:35;;;;;;;0.22;0.22;;;;;;;24.36;66.31;100674.22;6369306;23;20016;-83
2023/08/15 00:29:06;;;;;;;0.50;0.50;;;;;;;24.35;66.39;100671.66;6370036;23;20013;-84
2023/08/15 00:31:36;;;;;;;0.25;0.25;;;;;;;24.31;66.66;100664.88;6343114;23;20005;-83
2023/08/15 00:34:07;;;;;;;0.35;0.35;;;;;;;24.32;66.17;100671.94;6405972;23;20024;-83
2023/08/15 00:36:37;;;;;;;0.80;0.70;;;;;;;24.31;67.71;100675.59;6406347;23;20005;-83
2023/08/15 00:39:07;;;;;;;0.70;0.70;;;;;;;24.29;67.66;100674.88;6378215;23;20005;-84
2023/08/15 00:41:38;;;;;;;0.85;0.73;;;;;;;24.24;67.83;100674.44;6344564;23;20088;-83
2023/08/15 00:44:08;;;;;;;0.43;0.43;;;;;;;24.27;67.18;100669.66;6344886;23;19997;-84
2023/08/15 00:46:39;;;;;;;0.43;0.43;;;;;;;24.25;67.01;100668.09;6369596;23;20104;-83
2023/08/15 00:49:10;;;;;;;3.97;0.65;;;;;;;24.23;66.99;100659.34;6369091;23;20389;-84
2023/08/15 00:51:40;;;;;;;0.50;0.50;;;;;;;24.22;67.48;100654.94;6343787;23;20027;-83
2023/08/15 00:54:11;;;;;;;0.60;0.60;;;;;;;24.20;67.78;100647.06;6379103;23;20005;-84
2023/08/15 00:56:41;;;;;;;0.43;0.43;;;;;;;24.20;67.04;100642.53;6344455;23;20017;-83
2023/08/15 00:59:12;;;;;;;1.27;0.75;;;;;;;24.22;67.07;100644.22;6345298;23;20694;-84
2023/08/15 01:01:43;;;;;;;0.50;0.50;;;;;;;24.24;67.35;100639.59;6346483;23;20358;-82
2023/08/15 01:04:14;;;;;;;0.40;0.40;;;;;;;24.24;67.50;100635.06;6348010;23;20001;-83
2023/08/15 01:06:45;;;;;;;0.20;0.20;;;;;;;24.22;67.41;100622.78;6370707;23;20043;-84
2023/08/15 01:09:15;;;;;;;0.60;0.50;;;;;;;24.19;68.65;100624.75;6369740;23;20001;-83
2023/08/15 01:12:11;;;;;;;2.35;1.33;;;;;;;24.19;67.42;100624.75;6369733;23;20001;-83
2023/08/15 01:15:04;;;;;;;0.20;0.20;;;;;;;24.20;67.04;100620.25;6369488;23;20009;-83
2023/08/15 01:17:44;;;;;;;0.30;0.30;;;;;;;24.20;67.36;100626.44;6382250;23;20005;-83
2023/08/15 01:20:20;;;;;;;0.30;0.30;;;;;;;24.19;67.18;100624.75;6372343;23;20061;-84
2023/08/15 01:22:52;;;;;;;0.20;0.20;;;;;;;24.18;67.14;100627.56;6419088;23;19996;-83
2023/08/15 01:25:23;;;;;;;0.47;0.47;;;;;;;24.16;67.70;100637.56;6437736;23;20029;-84
2023/08/15 01:27:53;;;;;;;0.30;0.30;;;;;;;24.13;67.86;100633.31;6375393;23;20017;-84
2023/08/15 01:30:23;;;;;;;0.55;0.55;;;;;;;24.17;67.51;100625.84;6400208;23;20020;-83
2023/08/15 01:32:57;;;;;;;0.30;0.30;;;;;;;24.12;68.77;100639.66;6373617;23;20001;-83
2023/08/15 01:35:33;;;;;;;0.60;0.50;;;;;;;24.12;68.16;100639.66;6370539;23;20021;-85
2023/08/15 01:38:18;;;;;;;0.30;0.30;;;;;;;24.15;68.40;100642.09;6402974;23;20001;-87
2023/08/15 01:40:53;;;;;;;0.70;0.35;;;;;;;24.12;68.35;100654.91;6354276;23;20005;-85
2023/08/15 01:43:23;;;;;;;0.40;0.40;;;;;;;24.11;70.42;100653.19;6350805;23;20025;-84
2023/08/15 01:45:54;;;;;;;2.63;1.95;;;;;;;24.15;69.57;100655.47;6373971;23;20016;-84
2023/08/15 01:48:25;;;;;;;0.68;0.60;;;;;;;24.13;69.39;100657.44;6372681;23;20009;-85
2023/08/15 01:50:55;;;;;;;0.63;0.60;;;;;;;24.12;68.39;100663.78;6348842;23;20529;-84
2023/08/15 01:53:26;;;;;;;1.25;0.50;;;;;;;24.06;69.42;100664.31;6372249;23;20009;-84
2023/08/15 01:55:56;;;;;;;0.40;0.40;;;;;;;24.04;71.03;100663.59;6383572;23;20027;-85
2023/08/15 01:58:27;;;;;;;0.50;0.50;;;;;;;24.04;69.83;100677.84;6348246;23;20001;-86
2023/08/15 02:00:58;;;;;;;0.30;0.30;;;;;;;24.05;69.45;100676.84;6372811;23;20020;-84
2023/08/15 02:03:29;;;;;;;0.30;0.30;;;;;;;23.96;70.21;100677.66;6384071;23;20087;-85
2023/08/15 02:06:00;;;;;;;1.25;0.60;;;;;;;24.02;69.27;100693.19;6372552;23;20488;-87
2023/08/15 02:08:30;;;;;;;0.50;0.50;;;;;;;24.06;68.97;100701.84;6372452;23;20001;-84
2023/08/15 02:11:01;;;;;;;0.30;0.30;;;;;;;24.02;69.42;100708.41;6412388;23;20017;-85
2023/08/15 02:13:33;;;;;;;0.65;0.60;;;;;;;23.88;71.96;100710.41;6387605;23;20005;-86
2023/08/15 02:16:04;;;;;;;0.53;0.53;;;;;;;23.86;71.50;100707.00;6377268;23;20249;-85
2023/08/15 02:18:34;;;;;;;0.20;0.20;;;;;;;23.93;71.31;100714.50;6385905;23;20252;-84
2023/08/15 02:21:04;;;;;;;0.40;0.40;;;;;;;24.01;69.50;100712.06;6347985;23;20012;-84
2023/08/15 02:23:35;;;;;;;0.60;0.60;;;;;;;23.93;70.98;100726.09;6371751;23;20040;-83
2023/08/15 02:26:05;;;;;;;1.92;1.25;;;;;;;23.81;72.26;100744.03;6348375;23;20036;-85
2023/08/15 02:28:36;;;;;;;2.75;1.00;;;;;;;23.77;72.65;100747.94;6348478;23;20400;-85
2023/08/15 02:31:10;;;;;;;0.63;0.63;;;;;;;23.82;71.01;100751.09;6409402;23;20005;-84
2023/08/15 02:33:43;;;;;;;0.40;0.40;;;;;;;23.78;74.39;100740.78;6349979;23;20009;-84
2023/08/15 02:36:13;;;;;;;0.20;0.20;;;;;;;23.75;72.41;100715.09;6351591;23;20027;-84
2023/08/15 02:38:44;;;;;;;0.30;0.30;;;;;;;23.75;73.27;100691.00;6352620;23;20013;-84
2023/08/15 02:41:14;;;;;;;2.28;0.50;;;;;;;23.69;74.67;100696.84;6374560;23;20011;-84
2023/08/15 02:43:45;;;;;;;0.30;0.30;;;;;;;23.81;72.61;100703.88;6412650;23;20005;-84
2023/08/15 02:46:15;;;;;;;0.73;0.73;;;;;;;23.48;77.22;100716.38;6350291;23;20009;-84
2023/08/15 02:48:45;;;;;;;1.02;0.85;;;;;;;23.47;77.12;100706.66;6350019;23;20012;-84
2023/08/15 02:51:16;;;;;;;0.35;0.35;;;;;;;23.32;78.69;100705.25;6374527;23;20345;-85
2023/08/15 02:53:46;;;;;;;0.38;0.38;;;;;;;23.42;77.21;100690.13;6409967;23;20079;-84
2023/08/15 02:56:17;;;;;;;1.02;0.82;;;;;;;23.27;79.35;100687.72;6347849;23;20005;-83
2023/08/15 02:58:48;;;;;;;0.30;0.30;;;;;;;23.23;79.07;100696.97;6347628;23;20009;-84
2023/08/15 03:01:18;;;;;;;0.35;0.35;;;;;;;23.13;79.77;100714.72;6383531;23;20449;-84
2023/08/15 03:03:49;;;;;;;0.47;0.47;;;;;;;23.07;80.65;100717.88;6374821;23;20008;-84
2023/08/15 03:06:19;;;;;;;0.70;0.70;;;;;;;23.06;80.20;100718.88;6350849;23;20582;-84
2023/08/15 03:08:50;;;;;;;0.30;0.30;;;;;;;22.95;81.77;100712.53;6362702;23;20108;-86
2023/08/15 03:11:20;;;;;;;0.90;0.30;;;;;;;22.91;81.45;100708.41;6364965;23;20015;-86
2023/08/15 03:13:50;;;;;;;1.55;1.45;;;;;;;;;;6380066;23;20001;-84
2023/08/15 03:16:21;;;;;;;0.60;0.60;;;;;;;23.04;79.03;100681.53;6383646;23;20650;-84
2023/08/15 03:18:51;;;;;;;0.40;0.40;;;;;;;22.81;82.95;100706.59;6349601;23;20001;-84
2023/08/15 03:21:22;;;;;;;0.32;0.32;;;;;;;22.87;80.45;100677.53;6373587;23;20005;-84
2023/08/15 03:23:53;;;;;;;2.55;1.15;;;;;;;22.78;82.05;100686.28;6374435;23;20002;-85
2023/08/15 03:26:25;;;;;;;1.92;1.55;;;;;;;22.40;82.38;100682.97;6351685;23;20028;-83
2023/08/15 03:28:56;;;;;;;0.80;0.40;;;;;;;22.38;81.45;100692.06;6387895;23;20246;-84
2023/08/15 03:31:27;;;;;;;4.95;1.00;;;;;;;22.52;79.68;100699.88;6351252;23;20035;-83
2023/08/15 03:33:57;;;;;;;1.02;0.65;;;;;;;22.54;79.04;100673.88;6388853;23;20001;-83
2023/08/15 03:36:28;;;;;;;0.50;0.50;;;;;;;22.51;79.27;100663.44;6380102;23;20012;-84
2023/08/15 03:38:58;;;;;;;0.55;0.55;;;;;;;22.57;78.06;100684.34;6353921;23;20200;-83
2023/08/15 03:41:28;;;;;;;6.68;1.30;;;;;;;22.69;76.05;100665.59;6389800;23;20020;-86
2023/08/15 03:43:59;;;;;;;0.50;0.50;;;;;;;22.76;75.42;100669.53;6378996;23;20095;-83
2023/08/15 03:46:29;;;;;;;0.43;0.43;;;;;;;22.75;77.47;100681.19;6379102;23;20023;-83
2023/08/15 03:49:00;;;;;;;0.55;0.55;;;;;;;22.81;75.14;100675.34;6379645;23;20001;-84
2023/08/15 03:51:30;;;;;;;0.50;0.50;;;;;;;22.84;75.27;100680.47;6355598;23;20067;-84
2023/08/15 03:54:01;;;;;;;0.70;0.47;;;;;;;22.62;77.17;100670.59;6390498;23;20008;-83
2023/08/15 03:56:31;;;;;;;6.82;0.47;;;;;;;22.69;75.62;100644.22;6379660;23;20029;-85
2023/08/15 03:59:02;;;;;;;0.38;0.38;;;;;;;22.77;75.01;100657.81;6354194;23;20005;-84
2023/08/15 04:01:33;;;;;;;0.50;0.50;;;;;;;22.76;75.18;100664.19;6377722;23;20059;-83
2023/08/15 04:04:04;;;;;;;0.63;0.63;;;;;;;22.62;76.98;100682.16;6349833;23;20100;-85
2023/08/15 04:06:34;;;;;;;0.40;0.40;;;;;;;22.69;74.98;100692.34;6376503;23;20008;-84
2023/08/15 04:09:06;;;;;;;0.60;0.60;;;;;;;22.67;76.79;100691.66;6374847;23;20064;-83
2023/08/15 04:11:36;;;;;;;0.65;0.65;;;;;;;22.73;74.75;100704.53;6374855;23;20277;-83
2023/08/15 04:14:07;;;;;;;0.45;0.45;;;;;;;22.73;75.40;100715.22;6356689;23;20004;-82
2023/08/15 04:16:38;;;;;;;0.20;0.20;;;;;;;22.73;74.39;100739.28;6351398;23;20001;-84
2023/08/15 04:19:09;;;;;;;0.47;0.40;;;;;;;22.74;74.60;100749.03;6351530;23;20037;-83
2023/08/15 04:21:39;;;;;;;0.30;0.30;;;;;;;22.61;76.88;100752.63;6351979;23;20047;-86
2023/08/15 04:24:10;;;;;;;0.85;0.85;;;;;;;22.64;77.33;100776.47;6352365;23;20560;-85
2023/08/15 04:26:40;;;;;;;1.42;1.33;;;;;;;22.67;76.88;100785.25;6369701;23;20028;-84
2023/08/15 04:29:10;;;;;;;0.88;0.80;;;;;;;22.63;75.60;100777.44;6394199;23;20085;-86
2023/08/15 04:31:41;;;;;;;0.85;0.60;;;;;;;22.54;76.57;100785.31;6367813;23;19994;-85
2023/08/15 04:34:11;;;;;;;0.40;0.40;;;;;;;22.69;75.84;100780.59;6394731;23;20013;-86
2023/08/15 04:36:46;;;;;;;0.52;0.52;;;;;;;22.64;75.02;100765.78;6393328;23;20013;-85
2023/08/15 04:39:21;;;;;;;0.68;0.68;;;;;;;22.62;75.28;100762.38;6363626;23;20013;-85
2023/08/15 04:41:51;;;;;;;0.60;0.60;;;;;;;22.59;75.14;100751.94;6381570;23;20008;-83
2023/08/15 04:44:22;;;;;;;0.70;0.70;;;;;;;22.62;74.44;100765.03;6349838;23;20065;-85
2023/08/15 04:46:52;;;;;;;0.38;0.38;;;;;;;22.48;78.09;100783.97;6344909;23;20005;-86
2023/08/15 04:49:23;;;;;;;0.40;0.40;;;;;;;22.54;76.68;100780.81;6403159;23;20005;-87
2023/08/15 04:51:53;;;;;;;0.75;0.60;;;;;;;22.58;75.38;100774.28;6387084;23;20084;-88
2023/08/15 04:54:23;;;;;;;0.85;0.60;;;;;;;22.53;75.87;100768.41;6369588;23;20056;-89
2023/08/15 04:56:54;;;;;;;0.50;0.50;;;;;;;22.56;75.66;100792.25;6353679;23;20398;-86
2023/08/15 04:59:24;;;;;;;0.85;0.57;;;;;;;22.53;75.37;100791.63;6340678;23;20005;-87
2023/08/15 05:01:55;;;;;;;0.40;0.40;;;;;;;22.55;74.44;100782.53;6363132;23;20449;-87
2023/08/15 05:04:25;;;;;;;0.22;0.22;;;;;;;22.56;74.58;100789.59;6340066;23;20009;-86
2023/08/15 05:06:57;;;;;;;0.50;0.50;;;;;;;22.57;74.37;100801.97;6340379;23;20004;-87
2023/08/15 05:09:29;;;;;;;0.70;0.70;;;;;;;22.52;74.83;100801.47;6339850;23;20032;-89
2023/08/15 05:11:59;;;;;;;0.30;0.30;;;;;;;22.51;74.84;100815.81;6340542;23;20341;-87
2023/08/15 05:14:29;;;;;;;0.38;0.38;;;;;;;22.55;74.47;100819.13;6340634;23;20004;-86
2023/08/15 05:17:00;;;;;;;1.25;0.60;;;;;;;22.55;74.20;100819.97;6364817;23;20012;-88
2023/08/15 05:19:30;;;;;;;1.05;1.05;;;;;;;22.59;73.62;100816.09;6340564;23;20032;-87
2023/08/15 05:22:01;;;;;;;0.38;0.38;;;;;;;22.57;74.02;100826.06;6374400;23;20001;-87
2023/08/15 05:24:31;;;;;;;0.35;0.35;;;;;;;22.62;73.70;100829.22;6339609;23;20056;-87
2023/08/15 05:27:02;;;;;;;0.25;0.25;;;;;;;22.62;74.21;100831.88;6340071;23;20064;-87
2023/08/15 05:29:32;;;;;;;0.32;0.32;;;;;;;22.60;74.25;100846.34;6339249;23;20016;-87
2023/08/15 05:32:04;;;;;;;2.33;0.68;;;;;;;22.59;74.40;100848.19;6338855;23;20024;-87
2023/08/15 05:34:35;;;;;;;2.50;1.50;;;;;;;22.36;79.93;100854.34;6370451;23;20096;-88
2023/08/15 05:37:05;;;;;;;0.80;0.80;;;;;;;22.49;76.08;100852.50;6375507;23;20311;-88
2023/08/15 05:39:36;;;;;;;1.10;1.10;;;;;;;22.53;76.11;100848.63;6378479;23;20005;-87
2023/08/15 05:42:06;;;;;;;0.30;0.30;;;;;;;22.52;75.11;100852.25;6356747;23;20012;-88
2023/08/15 05:44:37;;;;;;;2.00;1.23;;;;;;;22.56;74.62;100859.09;6360195;23;20005;-88
2023/08/15 05:47:07;;;;;;;0.60;0.60;;;;;;;22.55;74.19;100860.06;6358722;23;20009;-88
2023/08/15 05:49:37;;;;;;;5.30;1.80;;;;;;;22.51;75.78;100868.44;6381036;23;20013;-87
2023/08/15 05:52:08;;;;;;;0.28;0.28;;;;;;;22.48;74.33;100870.34;6363322;23;20000;-89
2023/08/15 05:54:38;;;;;;;0.30;0.30;;;;;;;22.48;74.03;100883.72;6363028;23;20005;-87
2023/08/15 05:57:09;;;;;;;0.68;0.65;;;;;;;22.51;73.41;100889.81;6413452;23;20001;-88
2023/08/15 05:59:39;;;;;;;0.20;0.20;;;;;;;22.47;73.75;100897.22;6359565;23;20024;-88
2023/08/15 06:02:10;;;;;;;0.40;0.40;;;;;;;22.43;73.41;100895.75;6340169;23;20013;-88
2023/08/15 06:04:41;;;;;;;0.30;0.30;;;;;;;22.43;73.17;100906.44;6340965;23;20005;-87
2023/08/15 06:07:14;;;;;;;0.65;0.65;;;;;;;22.49;72.81;100903.31;6340293;23;20005;-87
2023/08/15 06:09:45;;;;;;;1.00;0.90;;;;;;;22.45;73.23;100907.16;6339488;23;20020;-88
2023/08/15 06:12:15;;;;;;;0.63;0.63;;;;;;;22.43;72.94;100901.09;6339773;23;20044;-87
2023/08/15 06:14:46;;;;;;;0.30;0.30;;;;;;;22.41;72.77;100908.38;6339664;23;20045;-87
2023/08/15 06:17:17;;;;;;;0.52;0.52;;;;;;;22.42;72.65;100905.56;6338592;23;20092;-87
2023/08/15 06:19:47;;;;;;;0.55;0.43;;;;;;;22.44;72.43;100902.78;6363223;23;20035;-87
2023/08/15 06:22:18;;;;;;;8.10;1.52;;;;;;;22.46;72.58;100900.84;6363377;23;20008;-88
2023/08/15 06:24:48;;;;;;;0.40;0.40;;;;;;;22.42;72.53;100900.22;6366447;23;20005;-88
2023/08/15 06:27:19;;;;;;;0.35;0.35;;;;;;;22.38;72.91;100914.78;6376769;23;20008;-87
2023/08/15 06:29:49;;;;;;;0.65;0.60;;;;;;;22.37;72.80;100917.53;6338312;23;20005;-87
2023/08/15 06:32:30;;;;;;;0.40;0.40;;;;;;;22.33;72.93;100915.13;6340654;23;20179;-87
2023/08/15 06:35:03;;;;;;;0.68;0.68;;;;;;;22.37;72.27;100917.53;6341998;23;20635;-87
2023/08/15 06:37:34;;;;;;;0.95;0.90;;;;;;;22.36;72.64;100922.06;6374933;23;20074;-88
2023/08/15 06:40:07;;;;;;;0.20;0.20;;;;;;;22.37;72.72;100918.41;6388272;23;20012;-89
2023/08/15 06:42:38;;;;;;;2.83;0.50;;;;;;;22.44;72.93;100917.03;6369018;23;20232;-87
2023/08/15 06:45:13;;;;;;;0.70;0.70;;;;;;;22.43;72.47;100931.34;6338621;23;20643;-87
2023/08/15 06:47:44;;;;;;;0.93;0.82;;;;;;;22.28;71.89;100938.63;6339163;23;20005;-87
2023/08/15 06:50:14;;;;;;;0.30;0.30;;;;;;;22.33;72.03;100933.81;6362665;23;20015;-87
2023/08/15 06:52:45;;;;;;;0.52;0.52;;;;;;;22.33;72.31;100925.81;6339130;23;20127;-87
2023/08/15 06:55:16;;;;;;;0.63;0.50;;;;;;;22.38;72.17;100929.94;6361491;23;20012;-88
2023/08/15 06:57:47;;;;;;;0.28;0.28;;;;;;;22.39;71.56;100932.56;6362357;23;20058;-87
2023/08/15 07:00:18;;;;;;;0.43;0.43;;;;;;;22.42;71.65;100926.97;6336738;23;20041;-86
2023/08/15 07:02:49;;;;;;;0.30;0.30;;;;;;;22.42;71.98;100936.81;6361269;23;20009;-88
2023/08/15 07:05:20;;;;;;;3.78;0.52;;;;;;;22.42;72.54;100942.16;6362297;23;20020;-89
2023/08/15 07:07:54;;;;;;;0.30;0.30;;;;;;;22.45;71.95;100937.44;6363836;23;20069;-87
2023/08/15 07:10:27;;;;;;;0.43;0.43;;;;;;;22.49;71.93;100938.06;6362420;23;20013;-87
2023/08/15 07:13:01;;;;;;;0.30;0.30;;;;;;;22.50;72.06;100926.41;6363163;23;20075;-87
2023/08/15 07:15:37;;;;;;;0.50;0.40;;;;;;;22.53;71.53;100923.50;6337762;23;20338;-88
2023/08/15 07:18:08;;;;;;;0.40;0.40;;;;;;;22.37;71.45;100917.53;6337316;23;20012;-87
2023/08/15 07:20:42;;;;;;;0.40;0.40;;;;;;;22.51;71.21;100920.09;6338186;23;20023;-88
2023/08/15 07:23:13;;;;;;;0.20;0.20;;;;;;;22.60;71.45;100916.72;6337448;23;20466;-87
2023/08/15 07:25:43;;;;;;;1.38;0.93;;;;;;;22.57;71.03;100922.31;6363200;23;20005;-88
2023/08/15 07:28:14;;;;;;;0.20;0.20;;;;;;;22.49;71.06;100911.34;6362511;23;20001;-88
2023/08/15 07:30:48;;;;;;;2.05;0.77;;;;;;;22.57;71.02;100919.63;6336734;23;20299;-87
2023/08/15 07:33:19;;;;;;;0.30;0.30;;;;;;;22.62;70.83;100922.81;6367156;23;20044;-87
2023/08/15 07:35:49;;;;;;;1.50;1.23;;;;;;;22.57;71.64;100929.47;6342003;23;20001;-87
2023/08/15 07:38:25;;;;;;;0.20;0.20;;;;;;;22.33;71.99;100933.81;6344068;23;20005;-87
2023/08/15 07:40:58;;;;;;;0.20;0.20;;;;;;;22.43;71.07;100939.38;6348749;23;20101;-87
2023/08/15 07:43:34;;;;;;;0.88;0.63;;;;;;;22.45;71.82;100932.09;6365083;23;20013;-87
2023/08/15 07:46:07;;;;;;;0.80;0.60;;;;;;;22.47;71.33;100921.28;6339044;23;20036;-86
2023/08/15 07:48:38;;;;;;;0.30;0.30;;;;;;;22.54;71.07;100924.34;6338714;23;20005;-86
2023/08/15 07:51:19;;;;;;;0.40;0.40;;;;;;;22.52;71.02;100934.31;6337181;23;20239;-86
2023/08/15 07:53:51;;;;;;;0.63;0.63;;;;;;;22.54;71.11;100941.25;6361464;23;20005;-86
2023/08/15 07:56:33;;;;;;;2.35;0.73;;;;;;;22.50;71.02;100950.47;6337792;23;20005;-86
2023/08/15 07:59:07;;;;;;;1.45;1.35;;;;;;;22.50;70.92;100950.47;6337890;23;20354;-86
2023/08/15 08:01:37;;;;;;;0.32;0.32;;;;;;;22.57;71.08;100951.72;6335467;23;20104;-86
2023/08/15 08:04:08;;;;;;;0.45;0.45;;;;;;;22.53;71.77;100955.56;6372035;23;20374;-86
2023/08/15 08:06:38;;;;;;;0.60;0.60;;;;;;;22.52;71.48;100956.53;6336780;23;20015;-86
2023/08/15 08:09:09;;;;;;;1.80;0.85;;;;;;;22.41;72.01;100961.84;6336503;23;20046;-86
2023/08/15 08:11:39;;;;;;;0.77;0.77;;;;;;;22.45;71.05;100961.50;6336779;23;20387;-86
2023/08/15 08:14:09;;;;;;;0.20;0.20;;;;;;;22.51;71.14;100973.56;6338626;23;20012;-87
2023/08/15 08:16:40;;;;;;;0.52;0.52;;;;;;;22.46;71.77;100979.25;6339557;23;20313;-87
2023/08/15 08:19:10;;;;;;;1.85;0.75;;;;;;;22.45;72.10;100971.31;6339346;23;20338;-87
2023/08/15 08:21:42;;;;;;;0.10;0.10;;;;;;;22.48;71.77;100968.44;6339778;23;20012;-87
2023/08/15 08:24:12;;;;;;;0.45;0.45;;;;;;;22.39;72.13;100971.75;6338570;23;20516;-87
2023/08/15 08:26:43;;;;;;;0.20;0.20;;;;;;;22.46;71.54;100968.56;6363991;23;20013;-87
2023/08/15 08:29:14;;;;;;;1.00;0.90;;;;;;;22.42;72.00;100968.91;6374023;23;20004;-86
2023/08/15 08:31:44;;;;;;;1.10;0.65;;;;;;;22.32;72.93;100969.53;6372522;23;20081;-87
2023/08/15 08:34:15;;;;;;;0.47;0.47;;;;;;;22.50;72.41;100958.50;6363802;23;20092;-87
2023/08/15 08:36:45;;;;;;;0.52;0.52;;;;;;;22.65;71.32;100975.19;6339288;23;20381;-87
2023/08/15 08:39:15;;;;;;;0.75;0.75;;;;;;;22.64;72.39;100973.53;6373853;23;20009;-88
2023/08/15 08:41:47;;;;;;;0.88;0.47;;;;;;;22.66;72.90;100971.56;6339731;23;20012;-87
2023/08/15 08:44:20;;;;;;;1.60;0.85;;;;;;;22.73;72.17;100975.47;6364990;23;20001;-86
2023/08/15 08:46:51;;;;;;;0.73;0.73;;;;;;;22.82;71.60;100976.63;6339378;23;20035;-87
2023/08/15 08:49:24;;;;;;;0.20;0.20;;;;;;;22.84;72.20;100977.38;6339212;23;20009;-87
2023/08/15 08:51:59;;;;;;;0.30;0.30;;;;;;;22.77;72.13;100968.94;6339272;23;20107;-87
2023/08/15 08:54:29;;;;;;;0.20;0.20;;;;;;;22.64;71.81;100973.53;6339451;23;20067;-87
2023/08/15 08:57:01;;;;;;;1.10;0.93;;;;;;;22.84;71.10;100972.03;6363326;23;20341;-87
2023/08/15 08:59:33;;;;;;;7.88;1.55;;;;;;;22.95;71.35;100976.56;6338353;23;20013;-87
2023/08/15 09:02:06;;;;;;;0.93;0.80;;;;;;;23.01;71.13;100977.94;6361767;23;20335;-87
2023/08/15 09:04:36;;;;;;;;;;;;;;;23.05;71.05;100979.38;6363616;23;20319;-86
2023/08/15 09:07:06;;;;;;;0.30;0.30;;;;;;;23.09;70.62;100984.38;6363919;23;19957;-87
2023/08/15 09:09:37;;;;;;;0.20;0.20;;;;;;;23.10;70.46;100980.75;6338946;23;20013;-87
2023/08/15 09:12:07;;;;;;;0.20;0.20;;;;;;;23.08;70.51;100976.50;6338688;23;20572;-87
2023/08/15 09:14:41;;;;;;;0.20;0.20;;;;;;;23.08;69.98;100988.03;6363829;23;20080;-86
2023/08/15 09:17:11;;;;;;;0.50;0.50;;;;;;;23.11;70.30;100989.63;6338367;23;20099;-88
2023/08/15 09:19:42;;;;;;;0.65;0.65;;;;;;;23.13;70.53;100992.19;6340385;23;20032;-87
2023/08/15 09:22:20;;;;;;;4.40;0.93;;;;;;;23.19;70.13;100989.06;6343186;23;20015;-87
2023/08/15 09:24:51;;;;;;;0.60;0.60;;;;;;;23.16;70.66;100997.28;6339876;23;20005;-88
2023/08/15 09:27:21;;;;;;;0.20;0.20;;;;;;;23.09;70.69;100996.94;6375486;23;20080;-87
2023/08/15 09:29:52;;;;;;;0.40;0.40;;;;;;;23.21;70.42;100998.69;6341140;23;20092;-87
2023/08/15 09:32:22;;;;;;;1.10;0.80;;;;;;;23.16;70.71;100998.16;6362291;23;20478;-87
2023/08/15 09:34:59;;;;;;;0.55;0.55;;;;;;;23.14;70.67;100997.41;6343161;23;20075;-87
2023/08/15 09:37:29;;;;;;;0.43;0.40;;;;;;;23.14;70.55;100999.25;6343428;23;20064;-87
2023/08/15 09:40:01;;;;;;;0.45;0.45;;;;;;;23.12;70.46;100994.00;6339925;23;20464;-87
2023/08/15 09:42:31;;;;;;;0.20;0.20;;;;;;;23.14;70.38;101005.44;6339475;23;20116;-87
2023/08/15 09:45:03;;;;;;;0.50;0.50;;;;;;;23.15;69.80;100996.47;6363781;23;20024;-88
2023/08/15 09:47:36;;;;;;;4.05;1.70;;;;;;;23.19;70.06;101000.63;6337850;23;20009;-88
2023/08/15 09:50:09;;;;;;;0.50;0.50;;;;;;;23.19;70.23;101008.66;6338295;23;20317;-87
2023/08/15 09:52:41;;;;;;;0.20;0.20;;;;;;;23.29;70.28;101013.31;6338756;23;20004;-88
2023/08/15 09:55:14;;;;;;;1.33;1.23;;;;;;;23.34;70.26;101005.78;6337590;23;20009;-87
2023/08/15 09:57:45;;;;;;;0.65;0.65;;;;;;;23.20;69.56;101013.03;6338775;23;20059;-87
2023/08/15 10:00:17;;;;;;;1.48;0.52;;;;;;;23.32;69.91;101015.75;6361988;23;20005;-86
2023/08/15 10:02:48;;;;;;;0.63;0.63;;;;;;;23.35;69.37;101016.38;6370694;23;20005;-87
2023/08/15 10:05:21;;;;;;;0.30;0.30;;;;;;;23.45;69.46;101021.88;6361796;23;20289;-87
2023/08/15 10:07:51;;;;;;;;;;;;;;;23.40;69.78;101030.25;6362461;23;20012;-86
2023/08/15 10:10:23;;;;;;;0.25;0.25;;;;;;;23.34;69.05;101024.53;6336831;23;19904;-86
2023/08/15 10:12:54;;;;;;;0.22;0.22;;;;;;;23.37;69.03;101029.63;6335028;23;20005;-87
2023/08/15 10:32:34;;;;;;;0.30;0.30;;;;;;;23.62;68.23;101038.47;6019143;24;20026;-86
2023/08/15 10:35:12;;;;;;;0.50;0.50;;;;;;;23.70;68.02;101036.91;6199961;23;20430;-87
2023/08/15 10:38:29;;;;;;;0.30;0.30;;;;;;;23.71;67.64;101043.09;6348688;23;20035;-87
2023/08/15 11:07:45;;;;;;;0.20;0.20;;;;;;;24.03;67.32;101016.50;6424604;23;20460;-82
2023/08/15 11:10:15;;;;;;;2.88;1.50;;;;;;;24.02;64.99;101019.28;6377777;23;20017;-83
2023/08/15 11:12:50;;;;;;;0.52;0.52;;;;;;;24.10;65.80;101024.03;6379181;23;20024;-82
2023/08/15 11:15:20;;;;;;;0.88;0.85;;;;;;;24.10;64.66;101024.88;6380128;23;20008;-83
2023/08/15 11:17:51;;;;;;;0.40;0.40;;;;;;;24.09;65.05;101015.13;6379358;23;20370;-83
2023/08/15 11:20:22;;;;;;;0.30;0.30;;;;;;;24.15;63.67;101021.84;6374382;23;20396;-84
2023/08/15 11:22:57;;;;;;;0.50;0.50;;;;;;;24.15;63.51;101035.25;6348474;23;20009;-82
2023/08/15 11:25:27;;;;;;;0.40;0.40;;;;;;;24.23;63.91;101043.53;6348738;23;20009;-82
2023/08/15 11:27:58;;;;;;;0.20;0.20;;;;;;;24.28;63.62;101040.47;6373343;23;20008;-82
2023/08/15 11:30:29;;;;;;;0.28;0.28;;;;;;;24.37;63.61;101047.78;6346346;23;20103;-81
2023/08/15 11:32:59;;;;;;;0.30;0.30;;;;;;;24.50;64.01;101045.78;6381261;23;20028;-82
2023/08/15 11:35:30;;;;;;;0.30;0.30;;;;;;;24.50;64.57;101051.16;6372772;23;20448;-81
2023/08/15 11:38:00;;;;;;;0.20;0.20;;;;;;;24.63;63.45;101055.53;6348781;23;20005;-81
2023/08/15 11:40:33;;;;;;;2.15;1.05;;;;;;;24.65;63.46;101064.31;6347657;23;20389;-82
2023/08/15 11:43:04;;;;;;;0.30;0.30;;;;;;;24.75;64.09;101064.44;6372787;23;20414;-82
2023/08/15 11:45:34;;;;;;;2.17;1.65;;;;;;;24.78;63.84;101057.00;6372884;23;20013;-81
2023/08/15 11:48:05;;;;;;;0.28;0.28;;;;;;;24.93;64.29;101056.69;6349927;23;20103;-81
2023/08/15 11:50:38;;;;;;;15.90;2.78;;;;;;;24.94;63.60;101051.22;6348895;23;20015;-81
2023/08/15 11:53:14;;;;;;;4.28;0.30;;;;;;;25.01;63.50;101054.22;6350367;23;20012;-82
2023/08/15 11:55:46;;;;;;;0.20;0.20;;;;;;;25.17;63.51;101059.19;6348769;23;20321;-82
2023/08/15 11:58:34;;;;;;;0.43;0.43;;;;;;;25.22;63.67;101058.78;6349888;23;20077;-82
2023/08/15 12:01:06;;;;;;;0.30;0.30;;;;;;;25.32;62.47;101054.38;6345860;23;20776;-82
2023/08/15 12:03:38;;;;;;;0.22;0.22;;;;;;;25.35;60.24;101056.78;6369782;23;20092;-82
2023/08/15 12:06:18;;;;;;;0.82;0.82;;;;;;;25.38;61.37;101048.47;6407675;23;20009;-81
2023/08/15 12:08:48;;;;;;;0.30;0.30;;;;;;;25.50;63.66;101051.97;6346269;23;20012;-81
2023/08/15 12:11:20;;;;;;;0.47;0.43;;;;;;;25.62;62.91;101047.38;6346172;23;20005;-82
2023/08/15 12:13:51;;;;;;;0.20;0.20;;;;;;;25.69;62.96;101048.53;6370570;23;20005;-81
2023/08/15 12:16:21;;;;;;;0.32;0.32;;;;;;;25.74;63.67;101051.69;6370509;23;20472;-81
2023/08/15 12:18:52;;;;;;;0.57;0.57;;;;;;;25.77;61.97;101051.41;6371710;23;20385;-81
2023/08/15 12:21:22;;;;;;;0.50;0.40;;;;;;;25.72;60.53;101048.28;6344974;23;20044;-81
2023/08/15 12:23:53;;;;;;;0.55;0.55;;;;;;;25.84;62.43;101053.56;6345436;23;20009;-82
2023/08/15 12:26:23;;;;;;;0.20;0.20;;;;;;;25.84;62.64;101045.50;6369371;23;20418;-82
2023/08/15 12:28:53;;;;;;;0.30;0.30;;;;;;;25.91;62.80;101046.66;6346025;23;20009;-81
2023/08/15 12:31:24;;;;;;;0.20;0.20;;;;;;;25.97;62.59;101046.16;6369134;23;20430;-81
2023/08/15 12:33:54;;;;;;;0.35;0.35;;;;;;;25.97;61.51;101046.16;6371324;23;20397;-81